Peekskill, New York
Current Conditions -  °F | °C
As of 12:45 PM on Thursday 30 Oct 2014 (Local Time) from KSWF Reporting Station
Scattered Clouds Scattered Clouds  
Wind Chill: 54°   Ceiling: Unl
Heat Index: 54°   Visibility: 20mi
Dew Point: 39°   Wind: 12mph
Humidity: 58%   Direction: 300°WNW
Pressure: 29.99"   Gusts: 17mph
Location:  41.29°N, 73.92°W
Report Text: KSWF 301645Z 30010G15KT 20SM SCT040 12/04 A2999
Loading
Personal Weather Stations






























Interactive Weather Map New forecast layout! Learn more

10-Day Weather Forecast

Advertisements
Track Severe Weather on mobile